South Channel Island, Victoria

6:02 AM AEDT on December 28, 2014 (GMT +1100)
Blairgowrie | Change Station
CLOSE
Current Station
Personal Weather Station
Location: Blairgowrie, VICTORIA
Elevation: 39 ft
Nearby Weather Stations

Elev 39 ft 38.37 °S, 144.78 °E | Updated 9 minutes ago

Clear
Clear
49.3 °F
Feels Like 49 °F
N
0.0
Wind Variable Wind from SE
Gusts 0.0 mph

Today
High -- | Low -- °F
--% Chance of Precip.
Yesterday
High -- | Low -- °F
Precip. -- in
5:57 AM 8:46 PM
Waxing Crescent, 39% visible
Pressure 30.01 in
Visibility -9999.0 miles
Clouds
Windchill 49 °F
Dew Point 42 °F
Humidity 77%
Rainfall 0.00 in
Snow Depth Not available.
UV Not available.
Pollen Not available.
Air Quality Not available.
Flu Activity Not available.
METAR YMML 271830Z 34004KT CAVOK 11/09 Q1016 NOSIG

More Conditions Fewer Conditions

Pressure 30.01 in
Visibility -9999.0 miles
Clouds
Windchill 49 °F
Dew Point 42 °F
Humidity 77%
Rainfall 0.00 in
Snow Depth Not available.
UV Not available.
Pollen Not available.
Air Quality Not available.
Flu Activity Not available.
METAR YMML 271830Z 34004KT CAVOK 11/09 Q1016 NOSIG

More Conditions Fewer Conditions

10-Day Weather Forecast

Almanac

Astronomy

Dec. 28, 2014 Rise Set
Actual Time
Civil Twilight
Nautical Twilight
Astronomical Twilight
Moon
Length of Visible Light
Length of Day
Tomorrow will be .
, % of the Moon is Illuminated

Today's Extremes

Country Highs Country Lows

Community

WunderPhotos

Upload Photos

1,780,996 photos uploaded!

WunderBlogs® & News

Nearby

Air Quality

  Air Quality AQ Index Pollutant
Not available.

Snow Depth

Station Depth Elevation

Earthquake Activity

City Distance Mag. Time & Date
Minimum magnitude displayed is 2.5.

Coastal Water Temperatures

Place Temperature

Nearby Weather Stations